Time;durP1;ratioP1;P1;durP2;ratioP2;P2;SDS_P1;SDS_P2;PMS_P1;PMS_P2;Temp;Humidity;BMP_temperature;BMP_pressure;BME280_temperature;BME280_humidity;BME280_pressure;Samples;Min_cycle;Max_cycle;Signal;HPM_P1;HPM_P2
2020/12/23 00:02:04;;;;;;;17.92;14.70;;;11.70;85.40;;;;;;5040858;28;20444;-67
2020/12/23 00:04:30;;;;;;;18.38;13.48;;;11.70;85.40;;;;;;5074930;28;20037;-66
2020/12/23 00:06:56;;;;;;;16.13;13.98;;;11.70;85.30;;;;;;5074624;28;20032;-66
2020/12/23 00:09:22;;;;;;;17.58;15.45;;;11.70;85.40;;;;;;5074936;28;20037;-65
2020/12/23 00:11:53;;;;;;;20.02;15.27;;;11.60;85.40;;;;;;5074789;28;20368;-67
2020/12/23 00:14:19;;;;;;;17.63;14.63;;;11.60;85.70;;;;;;5074826;28;20029;-67
2020/12/23 00:16:44;;;;;;;19.35;15.50;;;11.50;86.00;;;;;;5057009;28;20399;-66
2020/12/23 00:19:10;;;;;;;18.73;15.27;;;11.50;86.30;;;;;;5092007;22;20446;-61
2020/12/23 00:21:36;;;;;;;17.95;14.73;;;11.50;86.20;;;;;;5055342;28;20044;-61
2020/12/23 00:24:01;;;;;;;17.67;14.18;;;11.50;86.00;;;;;;5055194;28;20044;-61
2020/12/23 00:26:27;;;;;;;19.15;14.48;;;11.50;86.00;;;;;;5055132;28;20472;-60
2020/12/23 00:28:52;;;;;;;18.98;14.32;;;11.50;86.00;;;;;;5055219;28;20059;-60
2020/12/23 00:31:18;;;;;;;61.15;42.22;;;11.60;85.90;;;;;;5054462;28;20104;-61
2020/12/23 00:33:44;;;;;;;54.63;36.38;;;11.60;85.90;;;;;;5047053;28;20041;-61
2020/12/23 00:36:13;;;;;;;35.38;23.90;;;11.60;85.80;;;;;;5035022;28;20033;-60
2020/12/23 00:38:40;;;;;;;23.90;17.73;;;11.60;85.80;;;;;;5034683;28;20117;-62
2020/12/23 00:41:11;;;;;;;21.83;17.25;;;11.60;85.40;;;;;;5034321;28;20052;-61
2020/12/23 00:43:37;;;;;;;23.33;17.10;;;11.60;85.70;;;;;;5034568;28;20515;-60
2020/12/23 00:46:04;;;;;;;19.95;16.50;;;11.60;85.70;;;;;;5034739;28;20068;-60
2020/12/23 00:48:29;;;;;;;41.53;29.02;;;11.50;85.50;;;;;;5054340;28;20470;-61
2020/12/23 00:50:55;;;;;;;56.08;36.20;;;11.50;86.10;;;;;;5074469;28;20028;-61
2020/12/23 00:53:21;;;;;;;52.85;35.10;;;11.30;86.30;;;;;;5074430;28;20075;-60
2020/12/23 00:55:47;;;;;;;25.73;19.17;;;11.30;86.80;;;;;;5074502;28;20498;-62
2020/12/23 00:58:13;;;;;;;21.77;17.35;;;11.20;86.60;;;;;;5074715;28;20081;-62
2020/12/23 01:00:38;;;;;;;24.15;15.93;;;11.20;87.00;;;;;;5039565;28;20037;-60
2020/12/23 01:03:04;;;;;;;20.17;16.23;;;11.20;86.90;;;;;;5015659;28;20400;-63
2020/12/23 01:05:29;;;;;;;19.45;16.33;;;11.20;87.10;;;;;;5034007;28;20049;-61
2020/12/23 01:07:55;;;;;;;19.35;15.45;;;11.20;86.90;;;;;;5034042;28;20481;-61
2020/12/23 01:10:21;;;;;;;23.38;16.42;;;11.30;86.90;;;;;;5034063;28;20045;-60
2020/12/23 01:12:47;;;;;;;23.17;17.98;;;11.20;86.80;;;;;;5034093;28;20032;-60
2020/12/23 01:15:12;;;;;;;21.40;17.20;;;11.30;86.70;;;;;;5016259;28;20072;-60
2020/12/23 01:17:38;;;;;;;21.60;16.50;;;11.20;86.50;;;;;;5034183;28;20076;-62
2020/12/23 01:20:04;;;;;;;20.35;16.90;;;11.20;86.90;;;;;;5034140;28;20052;-60
2020/12/23 01:22:30;;;;;;;20.10;16.77;;;11.10;87.20;;;;;;5046456;28;20079;-60
2020/12/23 01:24:55;;;;;;;21.95;18.15;;;11.10;87.30;;;;;;5043795;28;20037;-61
2020/12/23 01:27:21;;;;;;;20.80;16.95;;;11.10;87.40;;;;;;5024305;28;20086;-61
2020/12/23 01:29:46;;;;;;;22.20;17.17;;;11.20;87.70;;;;;;5040319;28;20033;-61
2020/12/23 01:32:12;;;;;;;21.90;16.15;;;11.10;87.70;;;;;;5045706;28;20035;-61
2020/12/23 01:34:38;;;;;;;24.83;17.77;;;11.10;87.80;;;;;;5034360;28;20428;-62
2020/12/23 01:37:03;;;;;;;24.40;18.50;;;11.10;87.60;;;;;;5052815;28;20060;-61
2020/12/23 01:39:29;;;;;;;26.48;18.88;;;11.10;87.60;;;;;;5035771;28;20119;-60
2020/12/23 01:41:56;;;;;;;25.95;19.40;;;11.00;87.90;;;;;;5053473;28;20025;-60
2020/12/23 01:44:22;;;;;;;26.02;18.52;;;10.90;88.40;;;;;;5050424;28;20041;-62
2020/12/23 01:46:49;;;;;;;25.20;18.30;;;10.80;88.90;;;;;;5035477;28;20064;-62
2020/12/23 01:49:15;;;;;;;23.75;18.05;;;10.70;89.30;;;;;;5059302;28;20037;-62
2020/12/23 01:51:41;;;;;;;25.02;18.48;;;10.70;89.50;;;;;;5045131;28;20049;-61
2020/12/23 01:54:07;;;;;;;23.45;16.60;;;10.70;89.30;;;;;;5022267;28;20048;-61
2020/12/23 01:56:34;;;;;;;21.48;16.05;;;10.70;89.40;;;;;;5048962;28;20064;-62
2020/12/23 01:58:59;;;;;;;21.52;17.20;;;10.70;88.90;;;;;;5053077;28;20044;-61
2020/12/23 02:01:29;;;;;;;19.90;16.25;;;10.80;88.50;;;;;;5045655;28;20029;-60
2020/12/23 02:03:55;;;;;;;21.90;16.70;;;10.90;88.20;;;;;;5043544;28;20119;-60
2020/12/23 02:06:21;;;;;;;21.95;17.40;;;10.90;88.20;;;;;;5037971;28;20120;-60
2020/12/23 02:08:49;;;;;;;22.02;17.33;;;11.00;87.90;;;;;;5050421;28;20458;-62
2020/12/23 02:11:14;;;;;;;22.85;17.52;;;11.00;87.70;;;;;;5046868;28;20071;-62
2020/12/23 02:13:42;;;;;;;24.52;17.60;;;11.00;87.50;;;;;;5041534;28;20032;-63
2020/12/23 02:16:08;;;;;;;20.45;16.55;;;10.90;87.60;;;;;;5052466;28;20052;-61
2020/12/23 02:18:34;;;;;;;21.85;15.73;;;10.90;88.10;;;;;;5035846;28;20492;-60
2020/12/23 02:21:00;;;;;;;21.67;16.75;;;10.90;88.10;;;;;;5036394;28;20701;-61
2020/12/23 02:23:26;;;;;;;23.05;16.48;;;10.90;87.80;;;;;;5046147;28;20037;-61
2020/12/23 02:25:52;;;;;;;19.00;15.00;;;11.00;87.70;;;;;;5035743;28;20038;-60
2020/12/23 02:28:18;;;;;;;20.05;15.05;;;11.00;87.60;;;;;;5047057;28;20120;-61
2020/12/23 02:30:43;;;;;;;22.88;16.10;;;11.10;87.30;;;;;;5039757;28;20471;-61
2020/12/23 02:33:09;;;;;;;23.23;17.35;;;11.10;86.90;;;;;;5046116;28;20044;-61
2020/12/23 02:35:35;;;;;;;22.70;17.58;;;11.10;87.00;;;;;;5019106;28;20041;-60
2020/12/23 02:38:00;;;;;;;27.65;17.83;;;11.00;86.80;;;;;;5049932;28;20500;-62
2020/12/23 02:40:26;;;;;;;21.88;16.80;;;11.00;87.00;;;;;;5052198;28;20029;-62
2020/12/23 02:42:52;;;;;;;28.05;17.98;;;10.90;87.80;;;;;;5051839;28;20395;-61
2020/12/23 02:45:17;;;;;;;23.10;16.73;;;11.00;86.90;;;;;;5052115;28;20029;-61
2020/12/23 02:47:43;;;;;;;22.58;16.88;;;10.90;86.80;;;;;;5055411;28;20150;-62
2020/12/23 02:50:08;;;;;;;21.05;16.52;;;10.90;87.00;;;;;;5071736;28;20043;-60
2020/12/23 02:52:34;;;;;;;20.17;16.10;;;10.90;87.70;;;;;;5071839;28;20041;-61
2020/12/23 02:55:00;;;;;;;21.73;16.02;;;10.90;87.10;;;;;;5071741;28;20064;-63
2020/12/23 02:57:26;;;;;;;20.85;16.40;;;11.00;86.40;;;;;;5071855;28;20067;-59
2020/12/23 02:59:51;;;;;;;23.90;16.27;;;11.00;86.50;;;;;;5071681;28;20480;-57
2020/12/23 03:02:17;;;;;;;20.77;15.55;;;10.90;86.60;;;;;;5072214;28;20047;-60
2020/12/23 03:04:42;;;;;;;19.58;15.50;;;10.90;86.80;;;;;;5069886;28;20082;-59
2020/12/23 03:07:08;;;;;;;22.45;16.30;;;10.90;86.80;;;;;;5072262;28;20020;-59
2020/12/23 03:09:33;;;;;;;22.35;17.08;;;10.90;86.80;;;;;;5071671;28;20393;-60
2020/12/23 03:11:59;;;;;;;23.05;16.08;;;11.00;86.80;;;;;;5071777;28;20024;-60
2020/12/23 03:14:24;;;;;;;21.50;15.88;;;11.10;86.50;;;;;;5071597;28;20028;-60
2020/12/23 03:16:50;;;;;;;21.30;16.30;;;11.10;86.30;;;;;;5071471;28;20045;-61
2020/12/23 03:19:16;;;;;;;21.20;16.40;;;11.10;86.10;;;;;;5071084;28;20090;-61
2020/12/23 03:21:41;;;;;;;22.35;16.25;;;11.00;86.10;;;;;;5065355;28;20033;-61
2020/12/23 03:24:07;;;;;;;20.38;16.45;;;11.00;86.30;;;;;;5048434;28;20392;-59
2020/12/23 03:26:32;;;;;;;21.90;16.73;;;11.00;86.30;;;;;;5051447;28;20090;-61
2020/12/23 03:28:58;;;;;;;25.58;18.05;;;11.00;86.40;;;;;;5050095;28;20041;-61
2020/12/23 03:31:24;;;;;;;20.20;15.73;;;10.80;86.60;;;;;;5051358;28;20033;-60
2020/12/23 03:33:49;;;;;;;21.17;15.55;;;10.80;87.20;;;;;;5048945;28;20029;-61
2020/12/23 03:36:15;;;;;;;22.67;17.20;;;10.80;87.20;;;;;;5049329;28;20033;-60
2020/12/23 03:38:40;;;;;;;23.85;17.25;;;10.70;87.20;;;;;;5048225;28;20029;-61
2020/12/23 03:41:06;;;;;;;22.40;17.52;;;10.70;87.40;;;;;;5004994;28;20029;-60
2020/12/23 03:43:32;;;;;;;23.27;17.08;;;10.70;87.70;;;;;;5007426;28;20033;-62
2020/12/23 03:45:58;;;;;;;24.58;17.13;;;10.70;87.50;;;;;;5046391;28;20074;-62
2020/12/23 03:48:24;;;;;;;23.35;16.15;;;10.80;87.40;;;;;;5044450;28;20040;-60
2020/12/23 03:50:50;;;;;;;23.45;17.35;;;10.80;87.10;;;;;;5056616;28;20096;-61
2020/12/23 03:53:15;;;;;;;22.73;16.23;;;10.90;86.90;;;;;;5072149;28;20425;-61
2020/12/23 03:55:41;;;;;;;21.52;16.60;;;10.80;87.20;;;;;;5071585;28;20604;-60
2020/12/23 03:58:06;;;;;;;22.15;16.67;;;10.80;87.00;;;;;;5053937;28;20045;-60
2020/12/23 04:00:32;;;;;;;25.33;17.73;;;10.80;87.10;;;;;;5071403;28;20383;-58
2020/12/23 04:02:58;;;;;;;24.30;18.38;;;10.90;87.00;;;;;;5071801;28;20036;-61
2020/12/23 04:05:24;;;;;;;23.33;17.38;;;10.80;87.00;;;;;;5053804;28;20044;-60
2020/12/23 04:07:50;;;;;;;23.75;16.75;;;10.80;87.20;;;;;;5070159;28;20483;-60
2020/12/23 04:10:15;;;;;;;26.52;17.73;;;10.90;87.00;;;;;;5071237;28;20036;-59
2020/12/23 04:12:41;;;;;;;22.65;17.25;;;10.90;87.00;;;;;;5069992;28;20403;-62
2020/12/23 04:15:09;;;;;;;25.60;17.88;;;11.00;86.80;;;;;;5070881;28;20044;-61
2020/12/23 04:17:34;;;;;;;22.27;16.95;;;11.00;86.40;;;;;;5071221;28;20025;-59
2020/12/23 04:20:01;;;;;;;24.67;17.95;;;11.00;86.70;;;;;;5071193;28;20048;-60
2020/12/23 04:22:28;;;;;;;23.17;16.90;;;10.90;86.70;;;;;;5059482;28;20035;-59
2020/12/23 04:24:59;;;;;;;28.10;18.30;;;10.80;86.80;;;;;;5033444;28;20040;-60
2020/12/23 04:27:25;;;;;;;24.40;16.83;;;10.80;87.00;;;;;;5051444;28;20037;-60
2020/12/23 04:29:50;;;;;;;26.45;18.60;;;10.80;87.20;;;;;;5033063;28;20036;-60
2020/12/23 04:32:16;;;;;;;24.05;17.75;;;10.80;87.10;;;;;;5051625;28;20033;-61
2020/12/23 04:34:42;;;;;;;22.40;16.25;;;10.70;87.00;;;;;;5033152;28;20068;-61
2020/12/23 04:37:08;;;;;;;24.88;17.88;;;10.70;87.20;;;;;;5051259;28;20087;-60
2020/12/23 04:39:33;;;;;;;25.98;17.90;;;10.70;87.00;;;;;;5035357;28;20040;-60
2020/12/23 04:41:59;;;;;;;23.85;16.35;;;10.70;87.00;;;;;;5055203;28;20196;-60
2020/12/23 04:44:25;;;;;;;23.52;17.25;;;10.70;87.00;;;;;;5052398;28;20037;-60
2020/12/23 04:46:52;;;;;;;23.90;17.58;;;10.70;86.80;;;;;;5037261;28;20025;-58
2020/12/23 04:49:21;;;;;;;21.80;16.52;;;10.70;86.80;;;;;;5071194;28;20543;-60
2020/12/23 04:51:55;;;;;;;30.85;18.52;;;10.70;86.60;;;;;;5074440;28;20032;-61
2020/12/23 04:54:22;;;;;;;23.92;17.55;;;10.80;86.50;;;;;;5074558;28;20546;-61
2020/12/23 04:56:47;;;;;;;26.75;17.80;;;10.70;86.00;;;;;;5074912;28;20037;-60
2020/12/23 04:59:13;;;;;;;25.70;16.67;;;10.70;86.00;;;;;;5054860;28;20502;-60
2020/12/23 05:01:39;;;;;;;22.48;17.45;;;10.70;86.60;;;;;;5074717;28;20040;-60
2020/12/23 05:04:05;;;;;;;25.95;18.60;;;10.70;86.90;;;;;;5059775;28;20096;-60
2020/12/23 05:06:35;;;;;;;24.55;17.83;;;10.60;87.00;;;;;;5081368;28;20039;-60
2020/12/23 05:09:05;;;;;;;22.40;15.60;;;10.60;86.60;;;;;;5074266;28;20060;-60
2020/12/23 05:11:34;;;;;;;21.30;16.13;;;10.70;86.60;;;;;;5055952;28;20032;-61
2020/12/23 05:14:04;;;;;;;22.13;16.20;;;10.80;86.40;;;;;;5073933;28;20029;-61
2020/12/23 05:16:31;;;;;;;20.08;14.60;;;10.80;86.20;;;;;;5074452;28;20085;-61
2020/12/23 05:18:57;;;;;;;20.88;15.50;;;10.80;86.30;;;;;;5074104;28;20033;-61
2020/12/23 05:21:23;;;;;;;24.30;16.40;;;10.80;86.00;;;;;;5071197;28;20025;-60
2020/12/23 05:23:49;;;;;;;34.88;21.75;;;10.90;85.80;;;;;;5054363;28;20492;-59
2020/12/23 05:26:15;;;;;;;21.13;15.70;;;10.80;85.90;;;;;;5054668;28;20075;-60
2020/12/23 05:28:43;;;;;;;21.95;15.23;;;10.80;85.90;;;;;;5054293;28;20044;-61
2020/12/23 05:31:16;;;;;;;24.38;15.95;;;10.80;86.00;;;;;;5054259;28;20476;-60
2020/12/23 05:33:44;;;;;;;22.52;15.27;;;10.80;85.70;;;;;;5053746;28;20036;-60
2020/12/23 05:36:18;;;;;;;22.27;15.52;;;10.70;85.50;;;;;;5054284;28;20393;-60
2020/12/23 05:38:45;;;;;;;24.02;15.48;;;10.70;85.70;;;;;;5055179;28;20556;-61
2020/12/23 05:41:20;;;;;;;21.75;14.68;;;10.70;85.60;;;;;;5036751;28;20115;-61
2020/12/23 05:43:45;;;;;;;20.42;15.35;;;10.60;86.00;;;;;;5035649;28;20049;-58
2020/12/23 05:46:12;;;;;;;22.63;14.85;;;10.60;86.30;;;;;;5054012;28;20044;-59
2020/12/23 05:48:40;;;;;;;21.17;14.77;;;10.60;86.20;;;;;;5064375;28;20119;-61
2020/12/23 05:51:08;;;;;;;23.05;15.35;;;10.60;86.40;;;;;;5036824;28;20439;-60
2020/12/23 05:53:36;;;;;;;20.92;14.60;;;10.70;86.30;;;;;;5073744;28;20021;-60
2020/12/23 05:56:03;;;;;;;23.13;15.45;;;10.70;85.80;;;;;;5053483;28;20078;-59
2020/12/23 05:58:34;;;;;;;18.95;13.90;;;10.70;85.70;;;;;;5071706;28;20039;-61
2020/12/23 06:01:09;;;;;;;21.55;13.95;;;10.80;85.80;;;;;;5073571;28;20024;-60
2020/12/23 06:03:55;;;;;;;19.05;13.57;;;10.90;85.40;;;;;;5073343;28;20446;-62
2020/12/23 06:06:30;;;;;;;21.15;14.05;;;10.90;85.20;;;;;;5073429;28;20115;-60
2020/12/23 06:08:56;;;;;;;;;;;10.90;85.00;;;;;;5074679;28;20037;-61
2020/12/23 06:11:47;;;;;;;17.80;12.32;;;10.90;84.80;;;;;;5055137;28;19912;-60
2020/12/23 06:14:23;;;;;;;16.90;12.75;;;10.90;84.70;;;;;;5073182;28;20028;-59
2020/12/23 06:16:58;;;;;;;21.00;14.10;;;11.00;84.60;;;;;;5074038;28;20051;-60
2020/12/23 06:19:37;;;;;;;20.40;13.73;;;11.00;84.30;;;;;;5074318;28;20123;-60
2020/12/23 06:22:08;;;;;;;21.05;14.18;;;11.00;84.40;;;;;;5065357;28;20021;-61
2020/12/23 06:24:35;;;;;;;20.73;14.38;;;11.00;84.30;;;;;;5053328;28;20029;-59
2020/12/23 06:27:03;;;;;;;18.45;14.10;;;11.10;84.10;;;;;;5051797;28;20036;-60
2020/12/23 06:29:40;;;;;;;21.05;14.98;;;11.10;84.10;;;;;;5018776;28;20028;-59
2020/12/23 06:32:21;;;;;;;20.42;14.27;;;11.00;84.20;;;;;;5053698;28;20048;-61
2020/12/23 06:34:53;;;;;;;22.13;14.70;;;11.00;84.60;;;;;;5054031;28;20036;-61
2020/12/23 06:37:23;;;;;;;20.15;13.43;;;10.90;84.60;;;;;;5053726;28;20025;-60
2020/12/23 06:39:49;;;;;;;19.50;14.07;;;10.90;84.50;;;;;;5054389;28;20032;-60
2020/12/23 06:42:14;;;;;;;22.77;15.60;;;11.00;84.60;;;;;;5053510;28;20099;-61
2020/12/23 06:44:43;;;;;;;20.80;14.18;;;10.90;84.50;;;;;;5053268;28;20029;-60
2020/12/23 06:47:19;;;;;;;22.55;14.48;;;10.90;84.80;;;;;;5035830;28;20029;-61
2020/12/23 06:49:48;;;;;;;18.38;14.00;;;10.80;84.90;;;;;;5035891;28;20037;-61
2020/12/23 06:52:23;;;;;;;19.45;14.50;;;10.80;85.10;;;;;;5034822;28;20489;-60
2020/12/23 06:55:09;;;;;;;22.23;16.38;;;10.90;85.00;;;;;;5035253;28;20144;-61
2020/12/23 06:57:34;;;;;;;19.80;15.18;;;10.80;84.90;;;;;;5034966;28;20380;-61
2020/12/23 07:00:13;;;;;;;23.75;15.40;;;10.80;85.20;;;;;;5034031;28;20037;-60
2020/12/23 07:02:43;;;;;;;20.35;15.27;;;10.80;85.10;;;;;;5034909;28;20060;-61
2020/12/23 07:05:13;;;;;;;27.75;16.30;;;10.80;85.10;;;;;;5016839;28;20033;-60
2020/12/23 07:07:43;;;;;;;21.50;16.23;;;10.90;85.10;;;;;;5033649;28;20049;-62
2020/12/23 07:10:24;;;;;;;24.20;16.58;;;10.90;85.20;;;;;;5037158;28;20060;-62
2020/12/23 07:12:54;;;;;;;28.13;16.75;;;10.80;85.20;;;;;;5032235;28;20131;-61
2020/12/23 07:15:26;;;;;;;21.83;15.43;;;10.80;85.40;;;;;;5032350;28;20532;-61
2020/12/23 07:17:56;;;;;;;22.58;15.90;;;10.80;85.70;;;;;;5033371;28;20045;-60
2020/12/23 07:20:24;;;;;;;23.48;16.80;;;10.80;85.70;;;;;;5032495;28;20028;-61
2020/12/23 07:22:53;;;;;;;22.95;17.35;;;10.80;85.70;;;;;;5047884;28;20028;-61
2020/12/23 07:25:26;;;;;;;21.08;15.18;;;10.80;85.70;;;;;;5034698;28;20025;-61
2020/12/23 07:27:55;;;;;;;19.90;15.25;;;10.70;85.80;;;;;;5052536;28;20029;-62
2020/12/23 07:30:22;;;;;;;22.17;15.25;;;10.80;85.60;;;;;;5052582;28;20484;-62
2020/12/23 07:33:08;;;;;;;21.15;15.32;;;10.80;85.50;;;;;;5034971;28;20147;-63
2020/12/23 07:35:37;;;;;;;19.77;14.70;;;10.80;85.70;;;;;;5052462;28;20463;-61
2020/12/23 07:38:05;;;;;;;24.65;15.35;;;10.80;85.70;;;;;;5052472;28;20025;-62
2020/12/23 07:40:32;;;;;;;24.00;15.93;;;10.70;86.00;;;;;;5052510;28;20033;-62
2020/12/23 07:42:58;;;;;;;20.13;15.27;;;10.70;86.20;;;;;;5052752;28;20052;-61
2020/12/23 07:45:29;;;;;;;23.25;16.20;;;10.80;85.90;;;;;;5035001;28;20029;-61
2020/12/23 07:48:01;;;;;;;30.08;19.77;;;10.80;85.90;;;;;;5057353;28;20039;-61
2020/12/23 07:50:29;;;;;;;25.75;17.52;;;10.80;86.00;;;;;;5054919;28;20032;-62
2020/12/23 07:52:55;;;;;;;21.88;16.08;;;10.90;85.70;;;;;;5072109;28;20036;-61
2020/12/23 07:55:22;;;;;;;22.30;16.42;;;10.90;85.80;;;;;;5072049;28;20021;-61
2020/12/23 07:57:49;;;;;;;27.05;17.75;;;10.80;85.60;;;;;;5071814;28;20033;-61
2020/12/23 08:00:16;;;;;;;20.13;15.77;;;10.90;85.90;;;;;;5071589;28;20029;-60
2020/12/23 08:02:41;;;;;;;19.75;15.15;;;10.90;85.90;;;;;;5072518;28;20071;-61
2020/12/23 08:05:22;;;;;;;21.52;14.65;;;10.90;85.80;;;;;;5071750;28;20056;-61
2020/12/23 08:07:47;;;;;;;24.98;15.85;;;10.90;85.60;;;;;;5072604;28;20051;-61
2020/12/23 08:10:15;;;;;;;21.33;14.93;;;11.00;85.40;;;;;;5071960;28;20403;-60
2020/12/23 08:12:50;;;;;;;17.85;13.70;;;11.00;85.30;;;;;;5072894;28;20047;-61
2020/12/23 08:15:16;;;;;;;21.92;15.02;;;11.10;85.30;;;;;;5068140;28;20041;-61
2020/12/23 08:17:42;;;;;;;22.35;15.50;;;11.10;85.20;;;;;;5054583;28;20071;-61
2020/12/23 08:20:16;;;;;;;21.17;15.93;;;11.00;85.10;;;;;;5037956;28;20052;-62
2020/12/23 08:22:45;;;;;;;24.42;16.52;;;11.00;85.50;;;;;;5055615;28;20108;-61
2020/12/23 08:25:15;;;;;;;23.67;16.80;;;11.10;85.40;;;;;;5055383;28;20373;-62
2020/12/23 08:27:45;;;;;;;21.33;15.55;;;11.10;85.40;;;;;;5055283;28;20094;-62
2020/12/23 08:30:32;;;;;;;22.23;16.75;;;11.10;85.30;;;;;;5055208;28;20029;-61
2020/12/23 08:33:11;;;;;;;23.50;15.75;;;11.10;85.30;;;;;;5055495;28;20025;-61
2020/12/23 08:35:39;;;;;;;24.30;16.75;;;11.10;85.40;;;;;;5054728;28;20029;-60
2020/12/23 08:38:14;;;;;;;25.58;18.90;;;11.00;85.40;;;;;;5055787;28;20135;-61
2020/12/23 08:40:48;;;;;;;23.45;18.05;;;11.00;85.80;;;;;;5037402;28;20033;-62
2020/12/23 08:43:25;;;;;;;24.98;17.45;;;11.10;85.70;;;;;;5055471;28;20035;-62
2020/12/23 08:45:52;;;;;;;24.27;16.55;;;11.10;86.10;;;;;;5055580;28;20033;-61
2020/12/23 08:48:21;;;;;;;25.23;17.55;;;11.10;85.60;;;;;;5063212;28;20031;-62
2020/12/23 08:51:00;;;;;;;26.48;18.27;;;11.10;85.70;;;;;;5075297;28;20025;-62
2020/12/23 08:53:37;;;;;;;25.45;18.30;;;11.00;85.90;;;;;;5079849;28;20052;-62
2020/12/23 08:56:21;;;;;;;38.08;25.02;;;10.90;86.50;;;;;;5077337;28;20040;-62
2020/12/23 08:58:49;;;;;;;32.20;21.33;;;10.90;87.00;;;;;;5075990;28;20020;-62
2020/12/23 09:01:22;;;;;;;32.08;20.88;;;11.00;86.80;;;;;;5041912;28;20137;-62
2020/12/23 09:04:09;;;;;;;24.30;18.23;;;11.00;86.10;;;;;;5058527;28;20675;-59
2020/12/23 09:06:52;;;;;;;;;;;;;;;;;;;;;
2020/12/23 09:09:22;;;;;;;29.75;21.00;;;11.10;86.30;;;;;;5045977;28;20450;-63
2020/12/23 09:11:53;;;;;;;27.88;20.05;;;11.20;86.20;;;;;;5075884;28;20399;-63
2020/12/23 09:14:34;;;;;;;28.35;19.23;;;11.20;86.10;;;;;;5075540;28;20082;-61
2020/12/23 09:17:24;;;;;;;32.08;21.23;;;11.30;86.70;;;;;;5055681;28;20025;-62
2020/12/23 09:20:00;;;;;;;35.03;22.65;;;11.30;86.00;;;;;;5037124;28;20036;-61
2020/12/23 09:22:30;;;;;;;32.17;22.30;;;11.40;86.00;;;;;;5056240;28;20037;-63
2020/12/23 09:25:42;;;;;;;29.27;20.80;;;11.40;85.80;;;;;;5054099;28;20032;-61
2020/12/23 09:28:07;;;;;;;25.13;18.85;;;11.40;85.80;;;;;;5056405;28;20025;-62
2020/12/23 09:30:40;;;;;;;25.35;18.65;;;11.50;85.80;;;;;;5057110;28;20040;-61
2020/12/23 09:33:26;;;;;;;29.77;19.88;;;11.50;85.60;;;;;;5039460;28;20041;-62
2020/12/23 09:36:04;;;;;;;23.65;18.08;;;11.50;85.80;;;;;;5037563;28;20033;-62
2020/12/23 09:38:34;;;;;;;26.75;18.70;;;11.50;85.80;;;;;;5055600;28;20032;-62
2020/12/23 09:41:01;;;;;;;21.10;16.52;;;11.50;85.90;;;;;;5037361;28;20029;-62
2020/12/23 09:43:28;;;;;;;27.05;17.45;;;11.60;86.10;;;;;;5054722;28;20037;-62
2020/12/23 09:46:08;;;;;;;23.40;17.38;;;11.60;86.70;;;;;;5034238;28;20442;-62
2020/12/23 09:48:34;;;;;;;26.52;18.33;;;11.60;86.30;;;;;;5063953;28;20479;-61
2020/12/23 09:51:00;;;;;;;25.90;18.23;;;11.50;86.90;;;;;;5072154;28;20044;-62
2020/12/23 09:53:27;;;;;;;26.17;19.02;;;11.40;87.30;;;;;;5074206;28;20025;-62
2020/12/23 09:55:52;;;;;;;32.67;23.38;;;11.40;87.90;;;;;;5072580;28;20035;-62
2020/12/23 09:58:18;;;;;;;28.55;22.60;;;11.40;87.70;;;;;;5074186;28;20450;-61
2020/12/23 10:00:47;;;;;;;24.67;19.58;;;11.40;88.10;;;;;;5073870;28;20503;-61
2020/12/23 10:03:12;;;;;;;25.40;17.98;;;11.40;88.10;;;;;;5073407;28;20138;-60
2020/12/23 10:05:39;;;;;;;27.25;19.55;;;11.40;88.30;;;;;;5070884;28;20066;-62
2020/12/23 10:08:09;;;;;;;24.10;16.65;;;11.40;88.40;;;;;;5073030;28;20040;-62
2020/12/23 10:10:37;;;;;;;22.45;16.10;;;11.40;88.60;;;;;;5073468;28;20028;-62
2020/12/23 10:13:04;;;;;;;25.63;17.35;;;11.40;89.10;;;;;;5073571;28;20120;-62
2020/12/23 10:15:29;;;;;;;23.25;17.10;;;11.50;89.00;;;;;;5066551;28;20626;-62
2020/12/23 10:17:55;;;;;;;23.50;16.65;;;11.60;89.00;;;;;;5053848;28;20033;-61
2020/12/23 10:20:21;;;;;;;23.90;17.40;;;11.60;89.00;;;;;;5053363;28;20041;-61
2020/12/23 10:22:46;;;;;;;21.83;17.05;;;11.70;88.80;;;;;;5036149;28;20120;-62
2020/12/23 10:25:12;;;;;;;22.55;15.90;;;11.70;88.70;;;;;;5053461;28;20029;-62
2020/12/23 10:27:38;;;;;;;22.77;16.45;;;11.70;88.80;;;;;;5049269;28;20091;-63
2020/12/23 10:30:08;;;;;;;22.58;16.95;;;11.70;88.70;;;;;;5053202;28;20035;-61
2020/12/23 10:32:34;;;;;;;27.52;18.02;;;11.70;88.80;;;;;;5035635;28;20116;-65
2020/12/23 10:35:00;;;;;;;22.08;17.20;;;11.60;89.30;;;;;;5053089;28;20099;-63
2020/12/23 10:37:26;;;;;;;22.88;17.23;;;11.60;89.30;;;;;;5053208;28;20060;-61
2020/12/23 10:39:52;;;;;;;22.23;17.10;;;11.70;89.20;;;;;;5053272;28;20384;-61
2020/12/23 10:42:17;;;;;;;22.48;16.58;;;11.60;89.20;;;;;;5053664;28;20025;-61
2020/12/23 10:44:46;;;;;;;26.08;18.45;;;11.70;89.10;;;;;;5053057;28;20102;-62
2020/12/23 10:47:12;;;;;;;24.40;18.33;;;11.70;89.20;;;;;;5054079;28;20033;-61
2020/12/23 10:49:37;;;;;;;23.98;17.33;;;11.70;89.10;;;;;;5072482;28;20028;-61
2020/12/23 10:52:03;;;;;;;21.80;18.02;;;11.70;89.10;;;;;;5072776;28;20510;-60
2020/12/23 10:54:30;;;;;;;26.17;18.67;;;11.80;89.10;;;;;;5073141;28;20028;-62
2020/12/23 10:56:57;;;;;;;23.75;19.02;;;11.80;89.10;;;;;;5073933;28;20181;-61
2020/12/23 10:59:23;;;;;;;26.35;19.25;;;11.80;89.20;;;;;;5053331;28;20040;-61
2020/12/23 11:01:55;;;;;;;29.17;20.52;;;11.80;89.30;;;;;;5022216;28;20483;-61
2020/12/23 11:04:24;;;;;;;25.77;18.90;;;11.80;89.20;;;;;;5046890;28;20108;-62
2020/12/23 11:06:51;;;;;;;25.60;18.02;;;11.80;89.30;;;;;;5036275;28;20041;-62
2020/12/23 11:09:17;;;;;;;27.58;19.15;;;11.80;89.50;;;;;;5052699;28;20060;-62
2020/12/23 11:11:47;;;;;;;22.02;17.15;;;11.80;89.90;;;;;;5052806;28;20044;-62
2020/12/23 11:14:13;;;;;;;22.98;16.02;;;11.80;89.90;;;;;;5052109;28;20032;-62
2020/12/23 11:16:39;;;;;;;20.40;14.90;;;11.90;89.80;;;;;;5052479;28;20037;-62
2020/12/23 11:19:04;;;;;;;21.13;15.63;;;12.00;89.90;;;;;;5026815;28;20041;-63
2020/12/23 11:21:32;;;;;;;21.48;16.27;;;12.00;90.00;;;;;;5032371;28;20041;-61
2020/12/23 11:23:58;;;;;;;16.13;12.68;;;12.00;89.80;;;;;;5031922;28;20493;-62
2020/12/23 11:26:23;;;;;;;17.70;13.90;;;12.10;89.70;;;;;;5014597;28;20030;-62
2020/12/23 11:28:49;;;;;;;16.92;14.18;;;12.00;90.00;;;;;;5031924;28;20059;-61
2020/12/23 11:31:15;;;;;;;18.35;14.07;;;12.00;90.00;;;;;;4997979;28;20037;-61
2020/12/23 11:33:44;;;;;;;20.08;13.95;;;12.00;90.20;;;;;;5032329;28;20056;-61
2020/12/23 11:36:09;;;;;;;19.02;15.52;;;12.00;90.30;;;;;;5014871;28;20068;-61
2020/12/23 11:38:36;;;;;;;20.33;16.20;;;12.00;90.40;;;;;;5032238;28;20041;-61
2020/12/23 11:41:05;;;;;;;22.60;18.58;;;12.00;90.50;;;;;;5012439;28;20104;-62
2020/12/23 11:43:30;;;;;;;21.77;16.13;;;11.90;90.60;;;;;;5032138;28;20033;-61
2020/12/23 11:45:56;;;;;;;18.77;14.85;;;12.00;90.60;;;;;;5032187;28;20396;-63
2020/12/23 11:48:21;;;;;;;18.90;13.55;;;11.90;90.70;;;;;;5034119;28;20533;-61
2020/12/23 11:50:47;;;;;;;18.60;15.07;;;12.00;90.80;;;;;;5053685;28;20057;-59
2020/12/23 11:53:12;;;;;;;19.38;16.17;;;11.90;90.90;;;;;;5056468;28;20032;-62
2020/12/23 11:55:38;;;;;;;18.52;14.82;;;11.90;91.00;;;;;;5055981;28;20039;-62
2020/12/23 11:58:04;;;;;;;15.82;12.43;;;11.80;91.10;;;;;;5056094;28;20055;-62
2020/12/23 12:00:30;;;;;;;18.02;10.90;;;11.90;91.10;;;;;;5055939;28;20033;-62
2020/12/23 12:02:56;;;;;;;12.73;10.32;;;11.90;91.10;;;;;;5054153;28;20396;-62
2020/12/23 12:05:21;;;;;;;14.60;10.52;;;11.90;91.10;;;;;;5055613;28;20041;-61
2020/12/23 12:07:47;;;;;;;13.43;11.15;;;12.00;91.10;;;;;;5055727;28;20096;-60
2020/12/23 12:10:13;;;;;;;20.40;11.05;;;11.90;91.10;;;;;;5056677;28;20029;-60
2020/12/23 12:12:38;;;;;;;14.82;11.15;;;12.00;91.10;;;;;;5056493;28;20047;-63
2020/12/23 12:15:05;;;;;;;54.40;32.42;;;12.00;91.10;;;;;;5055935;28;20071;-60
2020/12/23 12:17:30;;;;;;;30.50;20.08;;;12.10;90.90;;;;;;5036145;28;20041;-59
2020/12/23 12:19:56;;;;;;;19.25;13.20;;;12.10;90.80;;;;;;5041471;28;20041;-61
2020/12/23 12:22:22;;;;;;;13.15;10.32;;;12.30;90.70;;;;;;5047361;23;20092;-65
2020/12/23 12:24:47;;;;;;;13.93;11.50;;;12.30;90.60;;;;;;5035947;28;20395;-65
2020/12/23 12:27:13;;;;;;;14.50;11.73;;;12.30;90.60;;;;;;5036078;28;20375;-67
2020/12/23 12:29:39;;;;;;;20.58;15.68;;;12.30;90.70;;;;;;5035588;28;20034;-65
2020/12/23 12:32:06;;;;;;;15.20;11.75;;;12.30;90.60;;;;;;5035277;28;20033;-65
2020/12/23 12:34:32;;;;;;;13.45;10.80;;;12.40;90.80;;;;;;5035540;28;20025;-65